Time;durP1;ratioP1;P1;durP2;ratioP2;P2;SDS_P1;SDS_P2;PMS_P1;PMS_P2;Temp;Humidity;BMP_temperature;BMP_pressure;BME280_temperature;BME280_humidity;BME280_pressure;Samples;Min_cycle;Max_cycle;Signal;HPM_P1;HPM_P2
2022/09/09 00:02:24;;;;;;;2.45;1.25;;;;;;;15.72;100.00;100686.34;5268455;28;20045;-68
2022/09/09 00:05:23;;;;;;;3.80;1.05;;;;;;;15.70;100.00;100677.78;5271344;28;20098;-68
2022/09/09 00:07:59;;;;;;;3.08;1.30;;;;;;;15.60;100.00;100682.38;5260761;28;20104;-68
2022/09/09 00:10:39;;;;;;;2.88;1.13;;;;;;;15.61;100.00;100678.72;5268784;28;20025;-69
2022/09/09 00:13:39;;;;;;;3.20;1.17;;;;;;;15.85;100.00;100677.91;5274304;28;20115;-69
2022/09/09 00:16:23;;;;;;;3.63;1.58;;;;;;;15.72;100.00;100681.06;5270516;28;20055;-68
2022/09/09 00:19:10;;;;;;;2.38;1.27;;;;;;;15.68;100.00;100672.69;5267656;28;20469;-69
2022/09/09 00:21:58;;;;;;;2.50;1.02;;;;;;;15.57;100.00;100672.97;5269679;28;20025;-68
2022/09/09 00:24:38;;;;;;;2.53;1.10;;;;;;;15.49;100.00;100672.97;5270225;28;20029;-68
2022/09/09 00:27:35;;;;;;;5.13;1.80;;;;;;;15.69;100.00;100666.38;5262747;28;20074;-69
2022/09/09 00:30:16;;;;;;;3.65;1.17;;;;;;;15.58;100.00;100674.63;5268082;28;20035;-68
2022/09/09 00:32:48;;;;;;;3.05;1.30;;;;;;;15.42;100.00;100674.63;5279983;28;20496;-69
2022/09/09 00:35:33;;;;;;;2.20;1.00;;;;;;;15.61;100.00;100669.03;5269513;28;20021;-69
2022/09/09 00:38:16;;;;;;;4.03;0.98;;;;;;;15.57;100.00;100670.34;5272421;28;20020;-68
2022/09/09 00:41:02;;;;;;;4.53;1.10;;;;;;;15.61;100.00;100661.09;5271440;28;20024;-69
2022/09/09 00:43:36;;;;;;;4.72;0.93;;;;;;;15.45;100.00;100655.81;5268699;28;20033;-69
2022/09/09 00:46:29;;;;;;;3.67;1.05;;;;;;;15.46;100.00;100655.66;5276454;28;20039;-69
2022/09/09 00:49:01;;;;;;;4.05;1.23;;;;;;;15.43;100.00;100650.72;5272075;28;20040;-69
2022/09/09 00:51:57;;;;;;;4.30;1.40;;;;;;;15.67;100.00;100647.22;5273106;28;20224;-69
2022/09/09 00:54:36;;;;;;;3.13;1.13;;;;;;;15.49;100.00;100644.78;5267737;28;20024;-69
2022/09/09 00:57:19;;;;;;;4.15;1.00;;;;;;;15.50;100.00;100646.41;5264676;28;20064;-69
2022/09/09 00:59:57;;;;;;;1.13;0.73;;;;;;;15.39;100.00;100651.22;5264164;28;20482;-69
2022/09/09 01:02:37;;;;;;;2.50;0.90;;;;;;;15.37;100.00;100650.53;5278397;28;20048;-69
2022/09/09 01:05:24;;;;;;;3.72;1.20;;;;;;;15.39;100.00;100645.94;5265537;28;20387;-69
2022/09/09 01:07:58;;;;;;;3.00;1.00;;;;;;;15.30;100.00;100653.00;5273662;28;20518;-68
2022/09/09 01:10:49;;;;;;;3.40;1.17;;;;;;;15.47;100.00;100649.38;5265988;28;20025;-69
2022/09/09 01:13:24;;;;;;;2.45;1.00;;;;;;;15.30;100.00;100651.22;5266020;28;20037;-69
2022/09/09 01:16:02;;;;;;;2.65;1.10;;;;;;;15.29;100.00;100646.09;5271385;28;20032;-69
2022/09/09 01:18:39;;;;;;;2.85;0.88;;;;;;;15.26;100.00;100649.88;5275395;28;20058;-69
2022/09/09 01:21:26;;;;;;;2.35;0.80;;;;;;;15.31;100.00;100647.59;5265826;28;20021;-69
2022/09/09 01:24:14;;;;;;;3.83;1.10;;;;;;;15.31;100.00;100642.31;5277485;28;20448;-69
2022/09/09 01:26:47;;;;;;;1.95;1.00;;;;;;;15.19;100.00;100638.34;5268322;28;20132;-69
2022/09/09 01:29:20;;;;;;;3.28;0.75;;;;;;;15.20;100.00;100633.91;5263015;28;20037;-68
2022/09/09 01:32:01;;;;;;;3.67;1.27;;;;;;;15.31;100.00;100623.00;5266948;28;20569;-69
2022/09/09 01:34:38;;;;;;;2.95;1.00;;;;;;;15.24;100.00;100641.31;5268601;28;20448;-69
2022/09/09 01:37:12;;;;;;;2.85;1.42;;;;;;;15.19;100.00;100619.88;5268998;28;20032;-69
2022/09/09 01:39:44;;;;;;;4.10;1.42;;;;;;;15.15;100.00;100629.09;5271438;28;20016;-69
2022/09/09 01:42:16;;;;;;;4.35;1.33;;;;;;;15.19;100.00;100629.59;5265178;28;20025;-68
2022/09/09 01:44:47;;;;;;;3.92;1.33;;;;;;;15.15;100.00;100623.00;5272125;28;20052;-69
2022/09/09 01:47:18;;;;;;;4.57;1.50;;;;;;;15.13;100.00;100619.72;5266027;28;20029;-68
2022/09/09 01:49:50;;;;;;;5.38;1.95;;;;;;;15.15;100.00;100621.19;5273542;28;20788;-69
2022/09/09 01:52:21;;;;;;;5.47;1.58;;;;;;;15.14;100.00;100616.91;5254368;28;20032;-68
2022/09/09 01:54:52;;;;;;;3.80;2.17;;;;;;;15.11;100.00;100624.31;5275460;28;20047;-69
2022/09/09 01:57:29;;;;;;;5.35;1.58;;;;;;;15.15;100.00;100618.53;5268341;28;20036;-69
2022/09/09 02:00:13;;;;;;;5.88;1.55;;;;;;;15.15;100.00;100615.91;5264748;28;20032;-69
2022/09/09 02:03:11;;;;;;;4.15;1.90;;;;;;;15.29;100.00;100609.13;5300464;22;20415;-69
2022/09/09 02:05:53;;;;;;;3.38;1.67;;;;;;;15.13;100.00;100604.69;5288689;28;20035;-69
2022/09/09 02:08:44;;;;;;;5.50;1.63;;;;;;;15.17;100.00;100605.19;5296965;28;20052;-69
2022/09/09 02:11:16;;;;;;;5.13;2.17;;;;;;;15.05;100.00;100602.06;5292596;28;20028;-69
2022/09/09 02:13:53;;;;;;;5.60;1.85;;;;;;;15.08;100.00;100602.56;5274835;28;20028;-69
2022/09/09 02:16:47;;;;;;;3.25;1.58;;;;;;;15.02;100.00;100599.75;5282698;28;20047;-69
2022/09/09 02:19:25;;;;;;;5.57;1.95;;;;;;;14.99;100.00;100610.63;5276508;28;20032;-69
2022/09/09 02:21:59;;;;;;;4.75;2.00;;;;;;;15.00;100.00;100602.56;5283962;28;20071;-69
2022/09/09 02:24:36;;;;;;;4.93;2.10;;;;;;;15.03;100.00;100611.94;5286029;28;20502;-69
2022/09/09 02:27:09;;;;;;;6.57;2.20;;;;;;;14.97;100.00;100607.34;5288075;28;20112;-69
2022/09/09 02:29:42;;;;;;;6.60;1.80;;;;;;;15.01;100.00;100601.56;5277248;28;20025;-69
2022/09/09 02:32:18;;;;;;;3.60;2.05;;;;;;;14.97;100.00;100594.97;5283705;28;20028;-69
2022/09/09 02:35:14;;;;;;;6.03;2.28;;;;;;;15.17;100.00;100592.00;5288092;28;20503;-69
2022/09/09 02:37:49;;;;;;;7.90;2.40;;;;;;;14.94;100.00;100591.84;5281477;28;20027;-69
2022/09/09 02:40:21;;;;;;;4.82;1.95;;;;;;;14.93;100.00;100590.22;5289517;28;20102;-69
2022/09/09 02:42:55;;;;;;;6.50;2.67;;;;;;;14.95;100.00;100594.31;5289951;28;20103;-68
2022/09/09 02:45:38;;;;;;;4.63;2.13;;;;;;;15.04;100.00;100590.69;5280102;28;20032;-69
2022/09/09 02:48:44;;;;;;;5.10;2.10;;;;;;;15.18;100.00;100591.00;5278182;28;20111;-69
2022/09/09 02:51:23;;;;;;;5.25;2.17;;;;;;;15.00;100.00;100597.28;5279025;28;20025;-69
2022/09/09 02:54:06;;;;;;;5.38;1.88;;;;;;;15.01;100.00;100596.28;5282738;28;20024;-69
2022/09/09 02:56:42;;;;;;;5.50;2.60;;;;;;;14.98;100.00;100591.34;5274535;28;20385;-69
2022/09/09 02:59:13;;;;;;;3.33;1.90;;;;;;;14.93;100.00;100603.41;5276363;28;20028;-69
2022/09/09 03:01:44;;;;;;;4.90;2.38;;;;;;;14.94;100.00;100589.22;5275755;28;20072;-68
2022/09/09 03:04:16;;;;;;;4.50;1.95;;;;;;;14.94;100.00;100605.84;5282757;28;20240;-69
2022/09/09 03:06:48;;;;;;;4.50;2.20;;;;;;;14.92;100.00;100602.53;5282019;28;20024;-68
2022/09/09 03:09:19;;;;;;;4.47;2.00;;;;;;;14.92;100.00;100599.91;5275022;28;20461;-69
2022/09/09 03:11:50;;;;;;;7.57;2.20;;;;;;;14.94;100.00;100600.59;5275581;28;20056;-69
2022/09/09 03:14:24;;;;;;;10.75;2.42;;;;;;;14.92;100.00;100604.34;5280940;28;20055;-69
2022/09/09 03:16:57;;;;;;;3.65;1.90;;;;;;;14.96;100.00;100601.22;5280948;28;20024;-69
2022/09/09 03:19:29;;;;;;;3.90;1.92;;;;;;;14.98;100.00;100612.44;5285732;28;20024;-68
2022/09/09 03:22:01;;;;;;;5.03;1.98;;;;;;;14.98;100.00;100615.09;5279551;28;20067;-69
2022/09/09 03:24:32;;;;;;;4.47;2.15;;;;;;;14.95;100.00;100617.22;5283432;28;20067;-69
2022/09/09 03:27:03;;;;;;;4.25;2.33;;;;;;;14.99;100.00;100611.44;5280677;28;20085;-69
2022/09/09 03:29:35;;;;;;;8.60;2.35;;;;;;;15.01;100.00;100619.22;5279920;28;20024;-68
2022/09/09 03:32:06;;;;;;;4.80;2.15;;;;;;;15.00;100.00;100613.13;5280238;28;20687;-69
2022/09/09 03:34:40;;;;;;;6.85;2.35;;;;;;;15.01;100.00;100616.59;5284440;28;20506;-68
2022/09/09 03:37:12;;;;;;;9.73;2.40;;;;;;;15.01;100.00;100609.50;5282344;28;20418;-69
2022/09/09 03:39:43;;;;;;;5.35;1.90;;;;;;;15.01;100.00;100611.31;5280798;28;20157;-68
2022/09/09 03:42:18;;;;;;;7.15;1.73;;;;;;;15.00;100.00;100607.00;5279226;28;20024;-69
2022/09/09 03:44:50;;;;;;;8.77;2.30;;;;;;;15.00;100.00;100607.00;5295627;28;20028;-69
2022/09/09 03:47:21;;;;;;;4.60;1.50;;;;;;;14.99;100.00;100602.72;5289629;28;20280;-69
2022/09/09 03:49:53;;;;;;;5.95;1.95;;;;;;;14.95;100.00;100606.69;5284650;28;20473;-68
2022/09/09 03:52:26;;;;;;;4.65;1.83;;;;;;;15.00;100.00;100604.34;5293951;28;20032;-68
2022/09/09 03:54:57;;;;;;;;;;;;;;;15.63;100.00;100606.28;5295345;28;20400;-69
2022/09/09 03:57:29;;;;;;;6.78;1.90;;;;;;;15.05;100.00;100600.25;5277898;28;19920;-70
2022/09/09 04:00:06;;;;;;;4.95;1.83;;;;;;;15.15;100.00;100599.25;5274472;28;20473;-69
2022/09/09 04:02:39;;;;;;;4.03;1.42;;;;;;;15.03;100.00;100602.22;5287078;28;20182;-69
2022/09/09 04:05:10;;;;;;;5.78;1.70;;;;;;;15.01;100.00;100595.47;5294774;28;20036;-68
2022/09/09 04:07:41;;;;;;;6.03;1.60;;;;;;;15.04;100.00;100601.25;5284318;28;20436;-69
2022/09/09 04:10:13;;;;;;;6.47;1.45;;;;;;;15.03;100.00;100596.94;5292871;28;20111;-68
2022/09/09 04:12:44;;;;;;;4.18;1.58;;;;;;;15.03;100.00;100588.22;5279986;28;20028;-70
2022/09/09 04:15:15;;;;;;;6.25;1.73;;;;;;;15.04;100.00;100597.78;5286482;28;20021;-69
2022/09/09 04:17:47;;;;;;;5.25;1.92;;;;;;;15.03;100.00;100602.22;5287287;28;20455;-69
2022/09/09 04:20:19;;;;;;;4.20;1.83;;;;;;;15.05;100.00;100596.78;5280834;28;20012;-68
2022/09/09 04:22:50;;;;;;;5.82;2.03;;;;;;;15.06;100.00;100601.06;5279874;28;20028;-69
2022/09/09 04:25:21;;;;;;;3.60;1.60;;;;;;;15.05;100.00;100589.69;5279127;28;20025;-69
2022/09/09 04:27:57;;;;;;;7.35;2.22;;;;;;;15.18;100.00;100583.91;5283858;28;20020;-69
2022/09/09 04:30:29;;;;;;;6.50;2.15;;;;;;;15.10;100.00;100589.19;5278042;28;20114;-69
2022/09/09 04:33:00;;;;;;;3.67;1.70;;;;;;;15.12;100.00;100584.59;5287544;28;20031;-69
2022/09/09 04:35:32;;;;;;;4.40;1.80;;;;;;;15.10;100.00;100586.56;5280361;28;20381;-69
2022/09/09 04:38:03;;;;;;;7.90;1.65;;;;;;;15.08;100.00;100578.00;5279212;28;20024;-69
2022/09/09 04:40:35;;;;;;;6.95;1.83;;;;;;;15.08;100.00;100576.19;5279140;28;20036;-69
2022/09/09 04:43:08;;;;;;;7.25;2.08;;;;;;;15.10;100.00;100578.66;5279946;28;20032;-69
2022/09/09 04:45:40;;;;;;;6.10;2.05;;;;;;;15.14;100.00;100579.13;5288158;28;20028;-69
2022/09/09 04:48:11;;;;;;;5.80;2.00;;;;;;;15.13;100.00;100586.22;5280371;28;20032;-69
2022/09/09 04:50:42;;;;;;;6.97;1.85;;;;;;;15.13;100.00;100574.84;5283761;28;20032;-69
2022/09/09 04:53:14;;;;;;;4.13;1.77;;;;;;;15.14;100.00;100576.50;5286488;28;20017;-68
2022/09/09 04:55:45;;;;;;;5.07;1.80;;;;;;;15.13;100.00;100570.41;5279060;28;20027;-69
2022/09/09 04:58:17;;;;;;;6.28;1.77;;;;;;;15.16;100.00;100567.44;5278789;28;20087;-69
2022/09/09 05:00:48;;;;;;;8.35;2.00;;;;;;;15.11;100.00;100561.81;5282328;28;20029;-69
2022/09/09 05:03:19;;;;;;;9.70;2.22;;;;;;;15.22;100.00;100569.38;5279037;28;20143;-69
2022/09/09 05:05:50;;;;;;;5.15;1.55;;;;;;;15.24;100.00;100577.97;5282369;28;20035;-69
2022/09/09 05:08:22;;;;;;;8.10;2.17;;;;;;;15.24;100.00;100574.53;5291846;28;20034;-69
2022/09/09 05:10:54;;;;;;;9.05;2.25;;;;;;;15.22;100.00;100569.38;5291878;28;20021;-68
2022/09/09 05:13:27;;;;;;;6.97;2.17;;;;;;;15.25;100.00;100570.88;5288102;28;20040;-69
2022/09/09 05:15:58;;;;;;;7.38;2.17;;;;;;;15.28;100.00;100573.19;5281697;28;20035;-69
2022/09/09 05:18:29;;;;;;;8.10;2.30;;;;;;;15.29;100.00;100575.66;5277591;28;20408;-69
2022/09/09 05:21:01;;;;;;;5.97;1.95;;;;;;;15.32;100.00;100571.88;5293429;28;20592;-69
2022/09/09 05:23:35;;;;;;;8.15;2.10;;;;;;;15.33;100.00;100574.31;5291918;28;20409;-69
2022/09/09 05:26:12;;;;;;;5.80;2.00;;;;;;;15.40;100.00;100563.91;5290404;28;20539;-69
2022/09/09 05:28:43;;;;;;;5.97;2.03;;;;;;;15.35;100.00;100565.44;5291246;28;20027;-69
2022/09/09 05:31:16;;;;;;;5.20;1.83;;;;;;;15.38;100.00;100563.28;5289833;28;20024;-70
2022/09/09 05:33:49;;;;;;;;;;;;;;;15.96;100.00;100566.59;5291116;28;20025;-69
2022/09/09 05:36:21;;;;;;;7.38;1.98;;;;;;;15.38;100.00;100555.38;5282905;28;20343;-69
2022/09/09 05:38:55;;;;;;;6.10;1.98;;;;;;;15.43;100.00;100562.78;5282848;28;20040;-69
2022/09/09 05:41:28;;;;;;;5.25;1.50;;;;;;;15.46;100.00;100573.81;5280827;28;20077;-69
2022/09/09 05:44:00;;;;;;;10.40;1.95;;;;;;;15.50;100.00;100579.59;5284076;28;20050;-69
2022/09/09 05:46:32;;;;;;;6.70;1.90;;;;;;;15.54;100.00;100580.91;5284513;28;20023;-69
2022/09/09 05:49:05;;;;;;;10.77;2.10;;;;;;;15.54;100.00;100583.53;5287982;28;20028;-69
2022/09/09 05:51:37;;;;;;;;;;;;;;;16.09;100.00;100577.41;5287668;28;20016;-69
2022/09/09 05:54:09;;;;;;;9.95;2.90;;;;;;;15.60;100.00;100579.38;5281207;28;19912;-69
2022/09/09 05:56:40;;;;;;;8.75;2.00;;;;;;;15.61;100.00;100584.50;5286305;28;20373;-69
2022/09/09 05:59:12;;;;;;;9.00;2.25;;;;;;;15.60;100.00;100580.19;5278994;28;20435;-69
2022/09/09 06:01:44;;;;;;;7.28;1.90;;;;;;;15.65;100.00;100587.63;5283336;28;20119;-69
2022/09/09 06:04:16;;;;;;;12.70;2.58;;;;;;;15.69;100.00;100586.34;5284153;28;20393;-69
2022/09/09 06:06:48;;;;;;;6.20;2.45;;;;;;;15.70;100.00;100580.88;5288404;28;20028;-69
2022/09/09 06:09:19;;;;;;;8.68;2.30;;;;;;;15.77;100.00;100581.84;5286023;28;20115;-69
2022/09/09 06:11:51;;;;;;;6.43;2.35;;;;;;;15.79;100.00;100579.03;5288436;28;20118;-69
2022/09/09 06:14:22;;;;;;;10.02;2.58;;;;;;;15.86;100.00;100581.81;5287106;28;20058;-69
2022/09/09 06:16:54;;;;;;;7.90;1.80;;;;;;;15.88;100.00;100575.38;5287000;28;20544;-69
2022/09/09 06:19:26;;;;;;;5.68;1.90;;;;;;;15.92;100.00;100586.44;5289866;28;20481;-69
2022/09/09 06:21:58;;;;;;;7.33;2.30;;;;;;;15.94;100.00;100587.88;5286727;28;20031;-69
2022/09/09 06:24:30;;;;;;;6.57;2.15;;;;;;;15.95;100.00;100586.09;5286402;28;20050;-69
2022/09/09 06:27:01;;;;;;;10.80;2.60;;;;;;;15.95;100.00;100588.72;5281422;28;20110;-69
2022/09/09 06:29:32;;;;;;;12.73;2.65;;;;;;;15.96;100.00;100587.72;5280486;28;20032;-69
2022/09/09 06:32:04;;;;;;;8.32;2.20;;;;;;;15.97;100.00;100589.38;5282677;28;20052;-68
2022/09/09 06:34:36;;;;;;;5.68;1.73;;;;;;;15.97;100.00;100592.00;5286709;28;20047;-68
2022/09/09 06:37:08;;;;;;;6.90;2.17;;;;;;;16.00;100.00;100583.75;5283839;28;20060;-69
2022/09/09 06:39:40;;;;;;;7.15;2.63;;;;;;;16.01;100.00;100590.66;5284941;28;20333;-69
2022/09/09 06:42:11;;;;;;;9.18;2.53;;;;;;;16.08;100.00;100585.53;5281927;28;20125;-71
2022/09/09 06:44:42;;;;;;;9.25;2.53;;;;;;;16.05;100.00;100570.81;5290336;28;20132;-70
2022/09/09 06:47:13;;;;;;;8.63;2.15;;;;;;;16.15;100.00;100581.19;5278316;28;20055;-69
2022/09/09 06:49:45;;;;;;;7.03;2.20;;;;;;;16.22;100.00;100577.69;5283932;28;20506;-70
2022/09/09 06:52:18;;;;;;;8.98;2.35;;;;;;;16.32;100.00;100584.56;5288158;28;20042;-70
2022/09/09 06:54:49;;;;;;;8.85;2.17;;;;;;;16.37;100.00;100585.72;5282087;28;20035;-69
2022/09/09 06:57:20;;;;;;;6.45;2.53;;;;;;;16.39;100.00;100580.22;5283612;28;20039;-69
2022/09/09 06:59:52;;;;;;;7.95;2.47;;;;;;;16.46;100.00;100581.19;5283824;28;20023;-69
2022/09/09 07:02:23;;;;;;;11.57;2.83;;;;;;;16.51;100.00;100581.47;5285531;28;20124;-69
2022/09/09 07:04:54;;;;;;;7.80;2.38;;;;;;;16.61;100.00;100576.78;5285745;28;20035;-70
2022/09/09 07:07:26;;;;;;;10.18;2.55;;;;;;;16.64;100.00;100584.38;5279452;28;20029;-69
2022/09/09 07:09:58;;;;;;;5.95;2.47;;;;;;;16.77;100.00;100583.81;5282433;28;20036;-70
2022/09/09 07:12:29;;;;;;;8.38;2.25;;;;;;;16.84;100.00;100582.09;5284158;28;20029;-70
2022/09/09 07:15:00;;;;;;;7.68;2.70;;;;;;;17.02;100.00;100581.81;5283393;28;20028;-70
2022/09/09 07:17:32;;;;;;;10.27;2.30;;;;;;;17.10;100.00;100579.09;5283864;28;20020;-70
2022/09/09 07:20:04;;;;;;;9.43;2.40;;;;;;;17.12;100.00;100584.19;5288436;28;20486;-70
2022/09/09 07:22:35;;;;;;;6.47;2.40;;;;;;;17.13;100.00;100569.97;5290547;28;20670;-70
2022/09/09 07:25:07;;;;;;;7.28;2.20;;;;;;;17.22;100.00;100569.69;5285457;28;20036;-70
2022/09/09 07:27:39;;;;;;;11.68;2.10;;;;;;;17.20;100.00;100577.00;5284652;28;20035;-70
2022/09/09 07:30:11;;;;;;;8.57;2.35;;;;;;;17.21;100.00;100572.53;5284580;28;20396;-70
2022/09/09 07:32:42;;;;;;;7.93;2.50;;;;;;;17.22;100.00;100577.63;5285180;28;20035;-69
2022/09/09 07:35:13;;;;;;;9.00;2.25;;;;;;;17.21;100.00;100575.19;5288787;28;20438;-70
2022/09/09 07:37:45;;;;;;;8.95;2.33;;;;;;;17.27;100.00;100588.53;5282350;28;20132;-70
2022/09/09 07:40:16;;;;;;;8.55;2.35;;;;;;;17.30;100.00;100597.09;5284269;28;20069;-70
2022/09/09 07:42:48;;;;;;;8.38;2.90;;;;;;;17.28;100.00;100589.34;5285925;28;20730;-70
2022/09/09 07:45:19;;;;;;;8.23;2.45;;;;;;;17.30;100.00;100586.50;5283414;28;20538;-69
2022/09/09 07:47:50;;;;;;;9.65;3.15;;;;;;;17.36;100.00;100577.84;5282704;28;20021;-70
2022/09/09 07:50:23;;;;;;;9.90;2.63;;;;;;;17.39;100.00;100580.16;5286248;28;20054;-70
2022/09/09 07:52:55;;;;;;;9.68;1.83;;;;;;;17.44;100.00;100581.25;5285035;28;20537;-70
2022/09/09 07:55:26;;;;;;;12.85;2.28;;;;;;;17.40;100.00;100581.78;5281187;28;20126;-70
2022/09/09 07:57:57;;;;;;;9.98;2.72;;;;;;;17.59;100.00;100581.25;5291105;28;20035;-70
2022/09/09 08:00:28;;;;;;;9.38;2.22;;;;;;;17.67;100.00;100575.84;5287854;28;20025;-70
2022/09/09 08:03:01;;;;;;;9.25;2.22;;;;;;;17.77;100.00;100582.72;5285051;28;20052;-70
2022/09/09 08:05:32;;;;;;;;;;;;;;;18.33;100.00;100581.19;5281129;28;20035;-70
2022/09/09 08:08:04;;;;;;;9.80;2.57;;;;;;;17.80;100.00;100575.22;5287716;28;19912;-70
2022/09/09 08:10:35;;;;;;;9.10;2.10;;;;;;;17.84;100.00;100578.34;5287390;28;20394;-70
2022/09/09 08:13:06;;;;;;;7.43;1.80;;;;;;;17.88;100.00;100583.09;5284527;28;20063;-70
2022/09/09 08:15:38;;;;;;;5.78;2.00;;;;;;;17.97;100.00;100584.63;5279059;28;20055;-71
2022/09/09 08:18:09;;;;;;;9.25;2.22;;;;;;;18.00;100.00;100583.47;5285165;28;20154;-70
2022/09/09 08:20:41;;;;;;;10.48;2.17;;;;;;;18.06;100.00;100587.19;5287434;28;20077;-70
2022/09/09 08:23:12;;;;;;;6.82;1.90;;;;;;;18.11;100.00;100579.53;5288357;28;20024;-70
2022/09/09 08:25:45;;;;;;;9.85;2.65;;;;;;;18.15;100.00;100578.13;5284991;28;20063;-71
2022/09/09 08:28:16;;;;;;;6.32;2.08;;;;;;;18.20;100.00;100589.81;5280011;28;20020;-70
2022/09/09 08:30:47;;;;;;;9.70;2.90;;;;;;;18.22;100.00;100579.84;5289868;28;20381;-70
2022/09/09 08:33:19;;;;;;;9.48;2.70;;;;;;;18.27;100.00;100578.47;5280991;28;20385;-70
2022/09/09 08:35:52;;;;;;;8.65;1.90;;;;;;;18.23;100.00;100584.13;5284549;28;20092;-71
2022/09/09 08:38:23;;;;;;;8.57;1.83;;;;;;;18.24;100.00;100590.25;5285964;28;20085;-70
2022/09/09 08:41:03;;;;;;;10.43;2.28;;;;;;;18.24;100.00;100595.56;5286736;28;20033;-70
2022/09/09 08:43:35;;;;;;;10.13;2.20;;;;;;;18.10;100.00;100599.88;5285245;28;20024;-71
2022/09/09 08:46:13;;;;;;;8.27;2.03;;;;;;;18.27;100.00;100594.38;5285427;28;20028;-71
2022/09/09 08:48:52;;;;;;;7.28;2.15;;;;;;;18.15;100.00;100600.16;5285487;28;20111;-71
2022/09/09 08:51:27;;;;;;;8.10;2.05;;;;;;;18.26;100.00;100601.53;5284134;28;20032;-72
2022/09/09 08:54:02;;;;;;;9.15;1.75;;;;;;;18.30;100.00;100594.84;5281041;28;20036;-72
2022/09/09 08:56:34;;;;;;;8.27;2.22;;;;;;;18.37;100.00;100601.03;5284538;28;20031;-71
2022/09/09 08:59:05;;;;;;;10.98;2.40;;;;;;;18.44;100.00;100604.56;5283925;28;20496;-70
2022/09/09 09:02:15;;;;;;;8.20;1.85;;;;;;;18.83;100.00;100610.53;5282471;28;20588;-71
2022/09/09 09:05:04;;;;;;;7.32;2.35;;;;;;;18.68;100.00;100614.00;5263917;28;20044;-71
2022/09/09 09:08:07;;;;;;;6.60;1.85;;;;;;;18.72;100.00;100609.19;5286930;28;20020;-70
2022/09/09 09:10:49;;;;;;;6.70;1.60;;;;;;;18.62;100.00;100620.06;5285409;28;20029;-71
2022/09/09 09:13:32;;;;;;;9.18;2.13;;;;;;;18.61;100.00;100617.63;5287172;28;20052;-72
2022/09/09 09:16:14;;;;;;;4.93;1.95;;;;;;;18.68;100.00;100618.50;5284938;28;20052;-71
2022/09/09 09:18:45;;;;;;;11.07;2.25;;;;;;;18.64;100.00;100623.38;5286258;28;20028;-70
2022/09/09 09:21:29;;;;;;;5.97;2.00;;;;;;;18.74;100.00;100630.22;5286358;28;20500;-72
2022/09/09 09:24:01;;;;;;;9.35;2.65;;;;;;;18.46;100.00;100633.56;5277524;28;20066;-71
2022/09/09 09:26:35;;;;;;;8.18;2.40;;;;;;;18.44;100.00;100632.91;5292496;28;20040;-71
2022/09/09 09:29:15;;;;;;;8.63;1.92;;;;;;;18.52;100.00;100627.50;5287594;28;20025;-71
2022/09/09 09:32:01;;;;;;;10.75;1.63;;;;;;;18.60;100.00;100624.75;5289186;28;20032;-70
2022/09/09 09:34:33;;;;;;;10.07;2.72;;;;;;;18.52;100.00;100630.16;5286158;28;20016;-71
2022/09/09 09:37:17;;;;;;;9.32;2.03;;;;;;;18.76;100.00;100620.25;5286421;28;20381;-71
2022/09/09 09:39:49;;;;;;;7.85;1.73;;;;;;;18.59;100.00;100624.94;5283109;28;20042;-70
2022/09/09 09:42:20;;;;;;;7.30;2.55;;;;;;;18.61;100.00;100622.91;5282545;28;20538;-70
2022/09/09 09:44:52;;;;;;;7.30;1.97;;;;;;;18.53;100.00;100621.19;5287452;28;20717;-71
2022/09/09 09:47:23;;;;;;;6.97;2.13;;;;;;;18.56;100.00;100615.53;5286305;28;20524;-70
2022/09/09 09:50:00;;;;;;;8.18;2.10;;;;;;;18.50;100.00;100616.28;5289012;28;20500;-70
2022/09/09 09:52:34;;;;;;;10.18;2.05;;;;;;;18.48;100.00;100623.56;5287277;28;20565;-69
2022/09/09 09:55:13;;;;;;;9.50;2.45;;;;;;;18.55;100.00;100628.97;5279657;28;20142;-71
2022/09/09 09:57:45;;;;;;;9.27;2.40;;;;;;;18.33;100.00;100626.25;5281495;28;20385;-69
2022/09/09 10:00:20;;;;;;;6.35;1.83;;;;;;;18.32;100.00;100626.47;5278380;28;20031;-70
2022/09/09 10:02:54;;;;;;;9.90;2.40;;;;;;;18.26;100.00;100624.53;5281685;28;20131;-70
2022/09/09 10:05:28;;;;;;;9.43;2.10;;;;;;;18.13;100.00;100611.94;5282153;28;20074;-70
2022/09/09 10:08:05;;;;;;;7.53;2.28;;;;;;;18.16;100.00;100620.34;5289119;28;20025;-71
2022/09/09 10:10:45;;;;;;;7.97;2.03;;;;;;;18.23;100.00;100623.91;5279895;28;20439;-70
2022/09/09 10:14:03;;;;;;;9.70;2.60;;;;;;;18.41;100.00;100625.31;5283712;28;20074;-70
2022/09/09 10:16:41;;;;;;;7.28;2.17;;;;;;;18.19;100.00;100627.94;5289098;28;20406;-69
2022/09/09 10:19:15;;;;;;;5.97;2.00;;;;;;;18.19;100.00;100620.00;5282227;28;20035;-70
2022/09/09 10:22:06;;;;;;;10.05;2.40;;;;;;;18.25;100.00;100623.72;5275102;28;20021;-69
2022/09/09 10:25:06;;;;;;;8.80;2.13;;;;;;;18.50;100.00;100634.84;5277709;28;20039;-70
2022/09/09 10:28:15;;;;;;;7.47;2.13;;;;;;;18.38;100.00;100631.03;5275775;28;20041;-69
2022/09/09 10:31:05;;;;;;;7.03;2.28;;;;;;;18.33;100.00;100634.22;5285584;28;20085;-70
2022/09/09 10:34:06;;;;;;;10.85;2.28;;;;;;;18.36;100.00;100641.00;5273658;28;20036;-70
2022/09/09 10:36:46;;;;;;;8.85;2.30;;;;;;;18.10;100.00;100629.03;5282461;28;20036;-72
2022/09/09 10:39:40;;;;;;;7.78;2.17;;;;;;;18.30;100.00;100644.41;5285879;28;20028;-70
2022/09/09 10:42:18;;;;;;;6.78;2.03;;;;;;;18.12;100.00;100632.34;5278118;28;20059;-71
2022/09/09 10:45:11;;;;;;;7.03;1.80;;;;;;;18.26;100.00;100635.16;5280094;28;20054;-69
2022/09/09 10:48:07;;;;;;;8.60;1.73;;;;;;;18.16;100.00;100630.97;5287252;28;20074;-69
2022/09/09 10:51:18;;;;;;;6.50;2.13;;;;;;;18.48;100.00;100634.19;5284700;28;20128;-69
2022/09/09 10:54:07;;;;;;;7.47;2.20;;;;;;;18.32;100.00;100634.41;5245071;28;20040;-70
2022/09/09 10:56:43;;;;;;;6.82;2.03;;;;;;;18.33;100.00;100636.06;5259142;28;20028;-69
2022/09/09 10:59:23;;;;;;;6.22;1.90;;;;;;;18.48;100.00;100629.69;5279911;28;20031;-68
2022/09/09 11:02:05;;;;;;;6.57;1.90;;;;;;;18.48;100.00;100640.31;5278992;28;20681;-68
2022/09/09 11:04:45;;;;;;;6.40;2.23;;;;;;;18.45;100.00;100632.75;5285353;28;20085;-69
2022/09/09 11:07:38;;;;;;;9.70;2.08;;;;;;;18.60;100.00;100637.16;5275811;28;20286;-69
2022/09/09 11:10:30;;;;;;;5.13;1.80;;;;;;;18.73;100.00;100632.06;5275241;28;20448;-69
2022/09/09 11:13:08;;;;;;;6.85;2.17;;;;;;;18.65;100.00;100634.78;5282426;28;20034;-69
2022/09/09 11:15:45;;;;;;;7.20;2.30;;;;;;;18.67;100.00;100633.59;5288466;28;20035;-68
2022/09/09 11:18:22;;;;;;;7.65;2.10;;;;;;;18.64;100.00;100636.63;5277257;28;20029;-69
2022/09/09 11:21:01;;;;;;;7.53;1.98;;;;;;;18.62;100.00;100633.34;5278435;28;20028;-69
2022/09/09 11:23:42;;;;;;;5.85;1.83;;;;;;;18.64;100.00;100630.50;5282198;28;20025;-69
2022/09/09 11:26:21;;;;;;;6.10;1.65;;;;;;;18.63;100.00;100626.19;5285995;28;20481;-69
2022/09/09 11:29:02;;;;;;;5.10;1.90;;;;;;;18.59;100.00;100620.44;5279750;28;20039;-68
2022/09/09 11:31:45;;;;;;;5.70;2.05;;;;;;;18.55;100.00;100626.31;5282869;28;20067;-68
2022/09/09 11:34:27;;;;;;;4.63;1.67;;;;;;;18.38;100.00;100639.00;5282165;28;20048;-69
2022/09/09 11:37:27;;;;;;;4.55;1.52;;;;;;;18.53;100.00;100631.81;5276367;28;20131;-68
2022/09/09 11:40:18;;;;;;;7.07;2.13;;;;;;;18.56;100.00;100631.44;5281244;28;20385;-69
2022/09/09 11:43:05;;;;;;;5.20;1.75;;;;;;;18.52;100.00;100629.34;5287492;28;20032;-69
2022/09/09 11:45:37;;;;;;;4.45;1.70;;;;;;;18.24;100.00;100619.44;5290755;28;20027;-69
2022/09/09 11:48:30;;;;;;;6.00;1.63;;;;;;;18.57;100.00;100629.63;5279586;28;20472;-68
2022/09/09 11:51:30;;;;;;;4.95;1.70;;;;;;;18.51;100.00;100639.13;5285943;28;20032;-68
2022/09/09 11:54:21;;;;;;;6.15;1.58;;;;;;;18.51;100.00;100627.69;5274859;28;20045;-68
2022/09/09 11:56:52;;;;;;;5.38;1.63;;;;;;;18.59;100.00;100625.75;5289862;28;20016;-69
2022/09/09 11:59:27;;;;;;;5.50;1.75;;;;;;;18.60;100.00;100622.09;5285967;28;20031;-69
2022/09/09 12:02:23;;;;;;;7.10;2.35;;;;;;;18.94;100.00;100623.25;5291416;28;20131;-68